Tuppers Plains, Ohio
Current Conditions -  °F | °C
As of 6:55 AM on Sunday 23 Nov 2014 (Local Time) from KUNI Reporting Station
Overcast Overcast  
Wind Chill: 39°   Ceiling: 10000
Heat Index: 39°   Visibility: 10mi
Dew Point: 30°   Wind: 0mph
Humidity: 69%   Direction: NA
Pressure: 30.06"   Gusts: NA
Location:  39.17°N, 81.85°W
Report Text: KUNI 231155Z AUTO 00000KT 10SM OVC100 04/M01 A3006 RMK AO2 T00411011 10082 20031
Loading
Personal Weather Stations






























Interactive Weather Map New forecast layout! Learn more

10-Day Weather Forecast

Advertisements
Track Severe Weather on mobile